sensor_id;sensor_type;location;lat;lon;timestamp;P1;durP1;ratioP1;P2;durP2;ratioP2
65053;SDS011;51639;47.828;35.038;2024-01-15T00:05:27;32.77;;;16.47;;
65053;SDS011;51639;47.828;35.038;2024-01-15T00:20:29;37.67;;;17.17;;
65053;SDS011;51639;47.828;35.038;2024-01-15T00:35:31;29.80;;;16.13;;
65053;SDS011;51639;47.828;35.038;2024-01-15T00:50:34;41.93;;;19.40;;
65053;SDS011;51639;47.828;35.038;2024-01-15T01:05:36;39.23;;;16.43;;
65053;SDS011;51639;47.828;35.038;2024-01-15T01:20:39;28.70;;;16.33;;
65053;SDS011;51639;47.828;35.038;2024-01-15T01:35:41;35.73;;;17.53;;
65053;SDS011;51639;47.828;35.038;2024-01-15T01:50:43;29.27;;;17.23;;
65053;SDS011;51639;47.828;35.038;2024-01-15T02:05:46;38.17;;;18.33;;
65053;SDS011;51639;47.828;35.038;2024-01-15T02:20:51;29.67;;;16.57;;
65053;SDS011;51639;47.828;35.038;2024-01-15T02:35:53;40.17;;;18.17;;
65053;SDS011;51639;47.828;35.038;2024-01-15T02:50:55;28.53;;;16.17;;
65053;SDS011;51639;47.828;35.038;2024-01-15T03:05:57;34.10;;;15.90;;
65053;SDS011;51639;47.828;35.038;2024-01-15T03:20:59;34.67;;;15.60;;
65053;SDS011;51639;47.828;35.038;2024-01-15T03:36:03;27.33;;;14.77;;
65053;SDS011;51639;47.828;35.038;2024-01-15T03:51:05;32.20;;;15.63;;
65053;SDS011;51639;47.828;35.038;2024-01-15T04:06:07;24.40;;;13.10;;
65053;SDS011;51639;47.828;35.038;2024-01-15T04:21:09;23.77;;;11.87;;
65053;SDS011;51639;47.828;35.038;2024-01-15T04:36:11;27.20;;;10.77;;
65053;SDS011;51639;47.828;35.038;2024-01-15T04:51:13;28.93;;;15.47;;
65053;SDS011;51639;47.828;35.038;2024-01-15T05:06:16;29.63;;;14.33;;
65053;SDS011;51639;47.828;35.038;2024-01-15T05:21:18;23.90;;;14.47;;
65053;SDS011;51639;47.828;35.038;2024-01-15T05:36:20;39.47;;;18.30;;
65053;SDS011;51639;47.828;35.038;2024-01-15T05:51:23;50.70;;;24.07;;
65053;SDS011;51639;47.828;35.038;2024-01-15T06:06:25;42.80;;;19.43;;
65053;SDS011;51639;47.828;35.038;2024-01-15T06:21:27;39.77;;;19.33;;
65053;SDS011;51639;47.828;35.038;2024-01-15T06:36:29;22.87;;;12.80;;
65053;SDS011;51639;47.828;35.038;2024-01-15T06:51:31;26.13;;;12.63;;
65053;SDS011;51639;47.828;35.038;2024-01-15T07:06:33;22.63;;;10.07;;
65053;SDS011;51639;47.828;35.038;2024-01-15T07:21:35;22.43;;;10.90;;
65053;SDS011;51639;47.828;35.038;2024-01-15T07:36:38;27.87;;;12.60;;
65053;SDS011;51639;47.828;35.038;2024-01-15T07:51:40;31.67;;;13.83;;
65053;SDS011;51639;47.828;35.038;2024-01-15T08:06:45;30.80;;;14.03;;
65053;SDS011;51639;47.828;35.038;2024-01-15T08:21:48;22.83;;;11.90;;
65053;SDS011;51639;47.828;35.038;2024-01-15T08:36:50;18.37;;;10.37;;
65053;SDS011;51639;47.828;35.038;2024-01-15T08:51:53;22.37;;;9.50;;
65053;SDS011;51639;47.828;35.038;2024-01-15T09:06:55;19.97;;;9.40;;
65053;SDS011;51639;47.828;35.038;2024-01-15T09:21:57;23.03;;;9.30;;
65053;SDS011;51639;47.828;35.038;2024-01-15T09:36:59;22.90;;;9.20;;
65053;SDS011;51639;47.828;35.038;2024-01-15T09:52:07;20.40;;;9.80;;
65053;SDS011;51639;47.828;35.038;2024-01-15T10:07:14;20.23;;;9.57;;
65053;SDS011;51639;47.828;35.038;2024-01-15T10:22:23;21.13;;;9.97;;
65053;SDS011;51639;47.828;35.038;2024-01-15T10:37:25;15.23;;;8.13;;
65053;SDS011;51639;47.828;35.038;2024-01-15T10:52:30;19.57;;;9.50;;
65053;SDS011;51639;47.828;35.038;2024-01-15T11:07:32;19.60;;;9.17;;
65053;SDS011;51639;47.828;35.038;2024-01-15T11:22:47;17.93;;;8.47;;
65053;SDS011;51639;47.828;35.038;2024-01-15T11:53:00;18.87;;;9.50;;
65053;SDS011;51639;47.828;35.038;2024-01-15T12:08:08;15.20;;;8.80;;
65053;SDS011;51639;47.828;35.038;2024-01-15T12:23:12;18.17;;;8.30;;
65053;SDS011;51639;47.828;35.038;2024-01-15T12:38:19;20.30;;;9.00;;
65053;SDS011;51639;47.828;35.038;2024-01-15T12:53:22;18.97;;;8.47;;
65053;SDS011;51639;47.828;35.038;2024-01-15T13:08:24;15.53;;;6.97;;
65053;SDS011;51639;47.828;35.038;2024-01-15T13:23:28;16.97;;;7.97;;
65053;SDS011;51639;47.828;35.038;2024-01-15T13:38:30;19.90;;;7.83;;
65053;SDS011;51639;47.828;35.038;2024-01-15T13:53:38;16.50;;;8.97;;
65053;SDS011;51639;47.828;35.038;2024-01-15T14:08:40;20.97;;;9.70;;
65053;SDS011;51639;47.828;35.038;2024-01-15T14:23:43;17.43;;;7.70;;
65053;SDS011;51639;47.828;35.038;2024-01-15T14:38:45;13.70;;;8.20;;
65053;SDS011;51639;47.828;35.038;2024-01-15T14:53:47;18.37;;;8.57;;
65053;SDS011;51639;47.828;35.038;2024-01-15T15:08:49;15.83;;;7.37;;
65053;SDS011;51639;47.828;35.038;2024-01-15T15:23:51;11.47;;;6.73;;
65053;SDS011;51639;47.828;35.038;2024-01-15T15:38:53;28.47;;;10.37;;
65053;SDS011;51639;47.828;35.038;2024-01-15T15:53:58;31.80;;;15.97;;
65053;SDS011;51639;47.828;35.038;2024-01-15T16:09:00;26.60;;;11.80;;
65053;SDS011;51639;47.828;35.038;2024-01-15T16:24:03;34.07;;;16.13;;
65053;SDS011;51639;47.828;35.038;2024-01-15T16:39:23;19.23;;;10.13;;
65053;SDS011;51639;47.828;35.038;2024-01-15T16:54:25;22.63;;;9.93;;
65053;SDS011;51639;47.828;35.038;2024-01-15T17:09:27;25.63;;;11.13;;
65053;SDS011;51639;47.828;35.038;2024-01-15T17:24:29;23.80;;;12.07;;
65053;SDS011;51639;47.828;35.038;2024-01-15T17:39:31;30.67;;;14.00;;
65053;SDS011;51639;47.828;35.038;2024-01-15T17:54:33;14.60;;;7.37;;
65053;SDS011;51639;47.828;35.038;2024-01-15T18:09:35;11.17;;;6.40;;
65053;SDS011;51639;47.828;35.038;2024-01-15T18:24:37;15.53;;;8.37;;
65053;SDS011;51639;47.828;35.038;2024-01-15T18:39:43;18.53;;;9.20;;
65053;SDS011;51639;47.828;35.038;2024-01-15T18:54:46;20.23;;;9.27;;
65053;SDS011;51639;47.828;35.038;2024-01-15T19:09:48;18.13;;;8.23;;
65053;SDS011;51639;47.828;35.038;2024-01-15T19:24:50;15.17;;;8.37;;
65053;SDS011;51639;47.828;35.038;2024-01-15T19:55:28;17.17;;;9.40;;
65053;SDS011;51639;47.828;35.038;2024-01-15T20:10:31;20.50;;;8.57;;
65053;SDS011;51639;47.828;35.038;2024-01-15T20:25:34;17.20;;;8.70;;
65053;SDS011;51639;47.828;35.038;2024-01-15T20:40:36;16.90;;;8.57;;
65053;SDS011;51639;47.828;35.038;2024-01-15T20:55:38;16.00;;;8.53;;
65053;SDS011;51639;47.828;35.038;2024-01-15T21:10:40;18.40;;;7.80;;
65053;SDS011;51639;47.828;35.038;2024-01-15T21:25:42;12.10;;;6.73;;
65053;SDS011;51639;47.828;35.038;2024-01-15T21:40:44;14.60;;;7.33;;
65053;SDS011;51639;47.828;35.038;2024-01-15T21:55:46;13.60;;;7.73;;
65053;SDS011;51639;47.828;35.038;2024-01-15T22:10:49;12.60;;;5.57;;
65053;SDS011;51639;47.828;35.038;2024-01-15T22:25:51;18.20;;;6.80;;
65053;SDS011;51639;47.828;35.038;2024-01-15T22:40:53;16.50;;;6.97;;
65053;SDS011;51639;47.828;35.038;2024-01-15T22:55:55;22.20;;;8.07;;
65053;SDS011;51639;47.828;35.038;2024-01-15T23:10:57;11.93;;;6.27;;
65053;SDS011;51639;47.828;35.038;2024-01-15T23:25:59;23.60;;;12.27;;
65053;SDS011;51639;47.828;35.038;2024-01-15T23:41:01;16.50;;;8.47;;
65053;SDS011;51639;47.828;35.038;2024-01-15T23:56:05;22.13;;;10.37;;
